sensor_id;sensor_type;location;lat;lon;timestamp;P1;P4;P2;P0;N10;N4;N25;N1;N05;TS
66505;SPS30;53332;51.082;5.832;2024-01-25T00:01:08;3.06;2.93;2.27;1.38;11.19;11.16;10.99;10.15;7.88;0.86
66505;SPS30;53332;51.082;5.832;2024-01-25T00:03:33;3.52;3.36;2.58;1.53;12.41;12.37;12.18;11.18;8.59;0.87
66505;SPS30;53332;51.082;5.832;2024-01-25T00:05:59;3.55;3.39;2.56;1.46;11.86;11.83;11.62;10.57;7.98;0.89
66505;SPS30;53332;51.082;5.832;2024-01-25T00:08:25;2.65;2.53;1.93;1.12;9.04;9.01;8.86;8.09;6.14;0.88
66505;SPS30;53332;51.082;5.832;2024-01-25T00:10:50;2.68;2.56;1.95;1.13;9.15;9.12;8.97;8.19;6.22;0.89
66505;SPS30;53332;51.082;5.832;2024-01-25T00:13:16;3.17;3.03;2.34;1.39;11.27;11.24;11.06;10.16;7.82;0.85
66505;SPS30;53332;51.082;5.832;2024-01-25T00:15:42;1.75;1.68;1.30;0.79;6.35;6.33;6.24;5.75;4.45;0.84
66505;SPS30;53332;51.082;5.832;2024-01-25T00:18:07;2.78;2.66;2.05;1.22;9.90;9.87;9.71;8.93;6.88;0.84
66505;SPS30;53332;51.082;5.832;2024-01-25T00:20:33;2.92;2.80;2.18;1.34;10.83;10.80;10.64;9.85;7.67;0.82
66505;SPS30;53332;51.082;5.832;2024-01-25T00:22:58;3.37;3.22;2.47;1.47;11.92;11.88;11.69;10.74;8.26;0.84
66505;SPS30;53332;51.082;5.832;2024-01-25T00:25:24;3.63;3.47;2.67;1.59;12.90;12.86;12.66;11.63;8.95;0.85
66505;SPS30;53332;51.082;5.832;2024-01-25T00:27:50;3.61;3.45;2.67;1.62;13.07;13.03;12.83;11.83;9.16;0.84
66505;SPS30;53332;51.082;5.832;2024-01-25T00:30:15;3.84;3.67;2.84;1.72;13.92;13.88;13.67;12.61;9.76;0.84
66505;SPS30;53332;51.082;5.832;2024-01-25T00:32:41;4.35;4.16;3.21;1.92;15.52;15.48;15.23;14.01;10.79;0.85
66505;SPS30;53332;51.082;5.832;2024-01-25T00:35:06;2.99;2.85;2.20;1.31;10.61;10.58;10.41;9.57;7.37;0.85
66505;SPS30;53332;51.082;5.832;2024-01-25T00:37:35;2.32;2.22;1.73;1.05;8.52;8.50;8.37;7.74;6.01;0.84
66505;SPS30;53332;51.082;5.832;2024-01-25T00:40:01;3.18;3.04;2.37;1.45;11.68;11.65;11.48;10.61;8.24;0.85
66505;SPS30;53332;51.082;5.832;2024-01-25T00:42:28;3.13;2.99;2.31;1.39;11.23;11.20;11.02;10.15;7.84;0.86
66505;SPS30;53332;51.082;5.832;2024-01-25T00:44:55;3.27;3.12;2.37;1.37;11.06;11.02;10.83;9.88;7.49;0.87
66505;SPS30;53332;51.082;5.832;2024-01-25T00:47:21;2.90;2.76;2.09;1.19;9.61;9.58;9.41;8.54;6.43;0.89
66505;SPS30;53332;51.082;5.832;2024-01-25T00:49:47;2.40;2.29;1.75;1.02;8.26;8.23;8.09;7.40;5.63;0.87
66505;SPS30;53332;51.082;5.832;2024-01-25T00:52:13;2.42;2.31;1.77;1.05;8.48;8.46;8.32;7.63;5.85;0.87
66505;SPS30;53332;51.082;5.832;2024-01-25T00:54:39;2.49;2.38;1.84;1.10;8.94;8.91;8.77;8.07;6.23;0.86
66505;SPS30;53332;51.082;5.832;2024-01-25T00:57:05;2.50;2.39;1.85;1.12;9.05;9.03;8.89;8.20;6.34;0.86
66505;SPS30;53332;51.082;5.832;2024-01-25T00:59:31;2.12;2.03;1.57;0.94;7.64;7.62;7.50;6.91;5.34;0.86
66505;SPS30;53332;51.082;5.832;2024-01-25T01:01:57;2.54;2.43;1.88;1.14;9.25;9.22;9.09;8.39;6.50;0.87
66505;SPS30;53332;51.082;5.832;2024-01-25T01:04:25;3.25;3.11;2.39;1.43;11.58;11.54;11.36;10.45;8.05;0.89
66505;SPS30;53332;51.082;5.832;2024-01-25T01:06:51;3.75;3.58;2.72;1.57;12.72;12.68;12.46;11.36;8.62;0.91
66505;SPS30;53332;51.082;5.832;2024-01-25T01:09:17;2.77;2.65;2.04;1.22;9.90;9.87;9.72;8.94;6.89;0.88
66505;SPS30;53332;51.082;5.832;2024-01-25T01:11:43;2.81;2.69;2.06;1.22;9.86;9.83;9.67;8.87;6.80;0.89
66505;SPS30;53332;51.082;5.832;2024-01-25T01:14:08;2.61;2.50;1.91;1.13;9.12;9.10;8.95;8.20;6.28;0.89
66505;SPS30;53332;51.082;5.832;2024-01-25T01:16:34;1.50;1.43;1.10;0.65;5.25;5.23;5.15;4.72;3.62;0.88
66505;SPS30;53332;51.082;5.832;2024-01-25T01:19:01;1.46;1.40;1.09;0.66;5.37;5.36;5.28;4.88;3.79;0.86
66505;SPS30;53332;51.082;5.832;2024-01-25T01:21:31;1.62;1.55;1.20;0.72;5.84;5.83;5.74;5.29;4.08;0.88
66505;SPS30;53332;51.082;5.832;2024-01-25T01:23:58;1.84;1.76;1.36;0.82;6.62;6.60;6.50;5.99;4.63;0.88
66505;SPS30;53332;51.082;5.832;2024-01-25T01:26:23;1.52;1.45;1.12;0.68;5.48;5.46;5.38;4.95;3.83;0.88
66505;SPS30;53332;51.082;5.832;2024-01-25T01:28:49;1.86;1.77;1.37;0.81;6.58;6.56;6.46;5.93;4.56;0.90
66505;SPS30;53332;51.082;5.832;2024-01-25T01:31:14;1.59;1.52;1.16;0.69;5.58;5.57;5.48;5.03;3.86;0.91
66505;SPS30;53332;51.082;5.832;2024-01-25T01:33:40;1.63;1.56;1.19;0.70;5.67;5.65;5.56;5.09;3.89;0.91
66505;SPS30;53332;51.082;5.832;2024-01-25T01:36:06;2.39;2.28;1.73;0.99;8.02;8.00;7.86;7.15;5.40;0.93
66505;SPS30;53332;51.082;5.832;2024-01-25T01:38:31;2.58;2.47;1.89;1.10;8.94;8.92;8.77;8.02;6.13;0.91
66505;SPS30;53332;51.082;5.832;2024-01-25T01:40:57;2.59;2.48;1.92;1.16;9.35;9.32;9.18;8.46;6.54;0.89
66505;SPS30;53332;51.082;5.832;2024-01-25T01:43:23;2.30;2.20;1.69;1.01;8.19;8.16;8.03;7.39;5.69;0.90
66505;SPS30;53332;51.082;5.832;2024-01-25T01:45:48;2.50;2.39;1.85;1.11;8.98;8.96;8.82;8.12;6.27;0.90
66505;SPS30;53332;51.082;5.832;2024-01-25T01:48:14;2.42;2.32;1.81;1.12;9.05;9.02;8.89;8.24;6.44;0.87
66505;SPS30;53332;51.082;5.832;2024-01-25T01:50:42;2.39;2.29;1.80;1.12;9.06;9.04;8.92;8.28;6.49;0.86
66505;SPS30;53332;51.082;5.832;2024-01-25T01:53:09;2.19;2.10;1.63;0.99;8.03;8.00;7.88;7.28;5.66;0.87
66505;SPS30;53332;51.082;5.832;2024-01-25T01:55:36;1.93;1.84;1.42;0.84;6.80;6.79;6.68;6.13;4.71;0.87
66505;SPS30;53332;51.082;5.832;2024-01-25T01:58:02;1.85;1.77;1.36;0.81;6.57;6.55;6.45;5.93;4.56;0.88
66505;SPS30;53332;51.082;5.832;2024-01-25T02:00:28;1.66;1.58;1.21;0.71;5.74;5.72;5.63;5.15;3.93;0.90
66505;SPS30;53332;51.082;5.832;2024-01-25T02:02:55;1.82;1.74;1.33;0.78;6.31;6.30;6.19;5.67;4.34;0.89
66505;SPS30;53332;51.082;5.832;2024-01-25T02:05:23;1.86;1.78;1.36;0.80;6.49;6.48;6.37;5.84;4.47;0.89
66505;SPS30;53332;51.082;5.832;2024-01-25T02:07:49;1.49;1.43;1.10;0.65;5.25;5.23;5.15;4.73;3.63;0.87
66505;SPS30;53332;51.082;5.832;2024-01-25T02:10:17;1.61;1.54;1.19;0.72;5.80;5.78;5.69;5.25;4.05;0.86
66505;SPS30;53332;51.082;5.832;2024-01-25T02:12:42;1.54;1.48;1.14;0.69;5.61;5.60;5.51;5.08;3.94;0.86
66505;SPS30;53332;51.082;5.832;2024-01-25T02:15:08;1.41;1.35;1.06;0.66;5.32;5.30;5.23;4.85;3.79;0.84
66505;SPS30;53332;51.082;5.832;2024-01-25T02:17:34;1.23;1.18;0.93;0.58;4.72;4.71;4.65;4.32;3.40;0.83
66505;SPS30;53332;51.082;5.832;2024-01-25T02:19:59;0.83;0.79;0.63;0.39;3.18;3.17;3.13;2.91;2.29;0.82
66505;SPS30;53332;51.082;5.832;2024-01-25T02:22:27;0.97;0.93;0.73;0.46;3.71;3.70;3.65;3.39;2.67;0.82
66505;SPS30;53332;51.082;5.832;2024-01-25T02:24:52;1.23;1.18;0.93;0.58;4.67;4.66;4.60;4.27;3.35;0.83
66505;SPS30;53332;51.082;5.832;2024-01-25T02:27:18;0.52;0.50;0.39;0.25;1.98;1.98;1.95;1.81;1.43;0.83
66505;SPS30;53332;51.082;5.832;2024-01-25T02:29:43;0.37;0.36;0.28;0.17;1.40;1.40;1.38;1.28;1.00;0.84
66505;SPS30;53332;51.082;5.832;2024-01-25T02:32:09;0.94;0.90;0.70;0.43;3.47;3.46;3.41;3.16;2.46;0.85
66505;SPS30;53332;51.082;5.832;2024-01-25T02:34:35;1.00;0.96;0.74;0.45;3.64;3.63;3.57;3.30;2.56;0.85
66505;SPS30;53332;51.082;5.832;2024-01-25T02:37:00;0.74;0.71;0.55;0.34;2.72;2.72;2.68;2.47;1.92;0.85
66505;SPS30;53332;51.082;5.832;2024-01-25T02:39:26;0.61;0.58;0.46;0.28;2.29;2.28;2.25;2.09;1.63;0.84
66505;SPS30;53332;51.082;5.832;2024-01-25T02:41:51;1.42;1.36;1.07;0.67;5.38;5.37;5.30;4.92;3.85;0.84
66505;SPS30;53332;51.082;5.832;2024-01-25T02:44:17;1.90;1.82;1.43;0.90;7.28;7.26;7.16;6.66;5.23;0.83
66505;SPS30;53332;51.082;5.832;2024-01-25T02:46:42;1.71;1.64;1.32;0.86;6.97;6.96;6.88;6.45;5.15;0.81
66505;SPS30;53332;51.082;5.832;2024-01-25T02:49:10;1.74;1.68;1.36;0.91;7.34;7.32;7.24;6.82;5.48;0.81
66505;SPS30;53332;51.082;5.832;2024-01-25T02:51:36;2.21;2.12;1.70;1.12;9.00;8.98;8.87;8.33;6.64;0.83
66505;SPS30;53332;51.082;5.832;2024-01-25T02:54:01;2.08;2.00;1.60;1.04;8.42;8.40;8.29;7.78;6.20;0.85
66505;SPS30;53332;51.082;5.832;2024-01-25T02:56:27;1.70;1.64;1.31;0.85;6.88;6.86;6.78;6.35;5.06;0.85
66505;SPS30;53332;51.082;5.832;2024-01-25T02:58:59;1.92;1.84;1.47;0.95;7.65;7.64;7.54;7.06;5.60;0.86
66505;SPS30;53332;51.082;5.832;2024-01-25T03:01:24;2.51;2.41;1.91;1.21;9.79;9.76;9.63;8.98;7.09;0.86
66505;SPS30;53332;51.082;5.832;2024-01-25T03:03:50;1.68;1.61;1.28;0.82;6.64;6.63;6.54;6.11;4.84;0.86
66505;SPS30;53332;51.082;5.832;2024-01-25T03:06:15;1.93;1.85;1.48;0.96;7.74;7.72;7.62;7.14;5.67;0.85
66505;SPS30;53332;51.082;5.832;2024-01-25T03:08:41;1.29;1.24;0.99;0.65;5.25;5.24;5.18;4.86;3.88;0.84
66505;SPS30;53332;51.082;5.832;2024-01-25T03:11:06;1.20;1.15;0.92;0.59;4.78;4.77;4.71;4.41;3.50;0.85
66505;SPS30;53332;51.082;5.832;2024-01-25T03:13:32;1.38;1.33;1.06;0.68;5.51;5.50;5.43;5.08;4.03;0.85
66505;SPS30;53332;51.082;5.832;2024-01-25T03:15:59;1.13;1.09;0.87;0.56;4.51;4.50;4.44;4.16;3.30;0.86
66505;SPS30;53332;51.082;5.832;2024-01-25T03:18:25;0.96;0.93;0.73;0.47;3.77;3.76;3.71;3.46;2.74;0.87
66505;SPS30;53332;51.082;5.832;2024-01-25T03:20:50;0.97;0.93;0.74;0.47;3.82;3.81;3.76;3.51;2.78;0.86
66505;SPS30;53332;51.082;5.832;2024-01-25T03:23:16;1.37;1.32;1.04;0.66;5.35;5.34;5.27;4.91;3.88;0.87
66505;SPS30;53332;51.082;5.832;2024-01-25T03:25:42;1.41;1.35;1.07;0.68;5.48;5.46;5.39;5.02;3.96;0.86
66505;SPS30;53332;51.082;5.832;2024-01-25T03:28:08;1.50;1.44;1.15;0.74;6.00;5.99;5.92;5.54;4.40;0.84
66505;SPS30;53332;51.082;5.832;2024-01-25T03:30:34;1.49;1.43;1.14;0.74;5.95;5.94;5.87;5.49;4.36;0.84
66505;SPS30;53332;51.082;5.832;2024-01-25T03:33:00;1.29;1.24;0.98;0.63;5.07;5.06;5.00;4.66;3.69;0.84
66505;SPS30;53332;51.082;5.832;2024-01-25T03:35:26;1.20;1.16;0.92;0.60;4.81;4.80;4.74;4.43;3.52;0.83
66505;SPS30;53332;51.082;5.832;2024-01-25T03:37:51;1.17;1.13;0.90;0.58;4.68;4.67;4.61;4.31;3.42;0.84
66505;SPS30;53332;51.082;5.832;2024-01-25T03:40:17;1.39;1.34;1.07;0.70;5.64;5.63;5.56;5.21;4.15;0.83
66505;SPS30;53332;51.082;5.832;2024-01-25T03:42:42;1.77;1.70;1.35;0.87;7.01;7.00;6.91;6.45;5.11;0.85
66505;SPS30;53332;51.082;5.832;2024-01-25T03:45:08;1.66;1.59;1.25;0.78;6.31;6.29;6.21;5.76;4.52;0.86
66505;SPS30;53332;51.082;5.832;2024-01-25T03:47:34;1.49;1.43;1.11;0.67;5.42;5.41;5.32;4.91;3.81;0.87
66505;SPS30;53332;51.082;5.832;2024-01-25T03:49:59;1.64;1.57;1.22;0.74;6.01;5.99;5.90;5.45;4.23;0.88
66505;SPS30;53332;51.082;5.832;2024-01-25T03:52:25;1.44;1.38;1.08;0.66;5.37;5.36;5.28;4.89;3.81;0.87
66505;SPS30;53332;51.082;5.832;2024-01-25T03:54:50;1.89;1.81;1.41;0.88;7.09;7.07;6.97;6.46;5.05;0.86
66505;SPS30;53332;51.082;5.832;2024-01-25T03:57:16;1.49;1.43;1.11;0.68;5.54;5.52;5.44;5.03;3.92;0.87
66505;SPS30;53332;51.082;5.832;2024-01-25T03:59:41;1.41;1.35;1.03;0.61;4.98;4.96;4.88;4.48;3.45;0.88
66505;SPS30;53332;51.082;5.832;2024-01-25T04:02:07;0.98;0.94;0.73;0.44;3.53;3.52;3.47;3.19;2.47;0.86
66505;SPS30;53332;51.082;5.832;2024-01-25T04:04:33;1.17;1.12;0.86;0.51;4.10;4.09;4.02;3.69;2.83;0.87
66505;SPS30;53332;51.082;5.832;2024-01-25T04:06:59;0.88;0.84;0.64;0.37;3.04;3.03;2.98;2.72;2.07;0.88
66505;SPS30;53332;51.082;5.832;2024-01-25T04:09:24;1.44;1.37;1.05;0.61;4.94;4.92;4.84;4.42;3.37;0.88
66505;SPS30;53332;51.082;5.832;2024-01-25T04:11:50;1.48;1.41;1.09;0.64;5.21;5.19;5.11;4.69;3.60;0.87
66505;SPS30;53332;51.082;5.832;2024-01-25T04:14:15;1.13;1.08;0.83;0.49;4.00;3.99;3.93;3.61;2.78;0.86
66505;SPS30;53332;51.082;5.832;2024-01-25T04:16:41;1.59;1.52;1.17;0.71;5.71;5.69;5.61;5.16;3.98;0.86
66505;SPS30;53332;51.082;5.832;2024-01-25T04:19:06;1.11;1.06;0.83;0.51;4.15;4.14;4.08;3.78;2.95;0.85
66505;SPS30;53332;51.082;5.832;2024-01-25T04:21:32;1.19;1.14;0.90;0.57;4.60;4.59;4.52;4.21;3.32;0.83
66505;SPS30;53332;51.082;5.832;2024-01-25T04:23:57;1.46;1.40;1.11;0.71;5.72;5.71;5.64;5.26;4.15;0.83
66505;SPS30;53332;51.082;5.832;2024-01-25T04:26:23;1.04;1.00;0.79;0.51;4.13;4.13;4.07;3.81;3.02;0.83
66505;SPS30;53332;51.082;5.832;2024-01-25T04:28:49;0.96;0.93;0.73;0.47;3.77;3.76;3.71;3.46;2.74;0.83
66505;SPS30;53332;51.082;5.832;2024-01-25T04:31:14;0.77;0.74;0.58;0.36;2.94;2.94;2.90;2.70;2.12;0.84
66505;SPS30;53332;51.082;5.832;2024-01-25T04:33:40;0.36;0.34;0.27;0.17;1.39;1.38;1.37;1.27;1.00;0.83
66505;SPS30;53332;51.082;5.832;2024-01-25T04:36:05;0.75;0.72;0.56;0.36;2.88;2.87;2.83;2.64;2.08;0.83
66505;SPS30;53332;51.082;5.832;2024-01-25T04:38:31;1.13;1.09;0.86;0.55;4.45;4.44;4.38;4.09;3.24;0.82
66505;SPS30;53332;51.082;5.832;2024-01-25T04:40:57;1.18;1.14;0.91;0.59;4.75;4.74;4.68;4.38;3.49;0.81
66505;SPS30;53332;51.082;5.832;2024-01-25T04:43:22;1.00;0.96;0.77;0.50;4.04;4.03;3.98;3.72;2.96;0.81
66505;SPS30;53332;51.082;5.832;2024-01-25T04:45:48;0.54;0.52;0.42;0.27;2.20;2.20;2.17;2.04;1.62;0.81
66505;SPS30;53332;51.082;5.832;2024-01-25T04:48:14;0.70;0.68;0.54;0.35;2.86;2.85;2.82;2.64;2.11;0.80
66505;SPS30;53332;51.082;5.832;2024-01-25T04:50:39;0.61;0.59;0.47;0.31;2.51;2.51;2.48;2.33;1.86;0.79
66505;SPS30;53332;51.082;5.832;2024-01-25T04:53:05;0.61;0.58;0.47;0.30;2.46;2.45;2.42;2.27;1.81;0.79
66505;SPS30;53332;51.082;5.832;2024-01-25T04:55:30;0.46;0.44;0.36;0.24;1.92;1.92;1.89;1.78;1.43;0.78
66505;SPS30;53332;51.082;5.832;2024-01-25T04:57:56;0.66;0.64;0.51;0.34;2.73;2.73;2.69;2.53;2.03;0.79
66505;SPS30;53332;51.082;5.832;2024-01-25T05:00:21;0.89;0.86;0.69;0.45;3.65;3.64;3.59;3.37;2.69;0.81
66505;SPS30;53332;51.082;5.832;2024-01-25T05:02:48;1.41;1.36;1.08;0.70;5.66;5.65;5.57;5.22;4.15;0.81
66505;SPS30;53332;51.082;5.832;2024-01-25T05:05:14;1.51;1.45;1.15;0.73;5.91;5.89;5.82;5.43;4.29;0.82
66505;SPS30;53332;51.082;5.832;2024-01-25T05:07:40;1.38;1.33;1.05;0.68;5.47;5.46;5.39;5.03;3.99;0.82
66505;SPS30;53332;51.082;5.832;2024-01-25T05:10:05;1.54;1.48;1.18;0.75;6.08;6.06;5.98;5.59;4.42;0.82
66505;SPS30;53332;51.082;5.832;2024-01-25T05:12:31;1.83;1.75;1.38;0.87;7.05;7.03;6.94;6.46;5.09;0.82
66505;SPS30;53332;51.082;5.832;2024-01-25T05:14:57;1.99;1.91;1.51;0.97;7.82;7.80;7.70;7.19;5.69;0.82
66505;SPS30;53332;51.082;5.832;2024-01-25T05:17:23;1.63;1.57;1.26;0.82;6.64;6.62;6.54;6.14;4.89;0.81
66505;SPS30;53332;51.082;5.832;2024-01-25T05:19:49;0.87;0.84;0.67;0.43;3.50;3.49;3.44;3.22;2.56;0.82
66505;SPS30;53332;51.082;5.832;2024-01-25T05:22:14;0.52;0.50;0.40;0.26;2.11;2.10;2.07;1.94;1.55;0.81
66505;SPS30;53332;51.082;5.832;2024-01-25T05:24:40;0.41;0.40;0.32;0.21;1.68;1.68;1.66;1.56;1.24;0.81
66505;SPS30;53332;51.082;5.832;2024-01-25T05:27:05;0.52;0.50;0.40;0.26;2.12;2.12;2.09;1.96;1.57;0.81
66505;SPS30;53332;51.082;5.832;2024-01-25T05:29:31;0.74;0.71;0.57;0.37;2.98;2.97;2.93;2.75;2.19;0.82
66505;SPS30;53332;51.082;5.832;2024-01-25T05:31:56;0.59;0.56;0.45;0.30;2.41;2.40;2.37;2.23;1.78;0.81
66505;SPS30;53332;51.082;5.832;2024-01-25T05:34:22;0.57;0.55;0.45;0.30;2.38;2.38;2.35;2.21;1.77;0.81
66505;SPS30;53332;51.082;5.832;2024-01-25T05:36:48;0.39;0.38;0.30;0.20;1.63;1.63;1.61;1.51;1.21;0.80
66505;SPS30;53332;51.082;5.832;2024-01-25T05:39:14;0.46;0.44;0.36;0.24;1.90;1.90;1.88;1.77;1.41;0.81
66505;SPS30;53332;51.082;5.832;2024-01-25T05:41:40;0.50;0.48;0.39;0.26;2.07;2.06;2.04;1.92;1.54;0.81
66505;SPS30;53332;51.082;5.832;2024-01-25T05:44:05;0.39;0.37;0.30;0.20;1.62;1.61;1.59;1.50;1.20;0.81
66505;SPS30;53332;51.082;5.832;2024-01-25T05:46:31;0.45;0.43;0.35;0.23;1.84;1.84;1.82;1.71;1.37;0.82
66505;SPS30;53332;51.082;5.832;2024-01-25T05:48:56;0.77;0.74;0.60;0.39;3.16;3.15;3.11;2.92;2.33;0.81
66505;SPS30;53332;51.082;5.832;2024-01-25T05:51:22;0.85;0.82;0.65;0.43;3.44;3.43;3.39;3.18;2.53;0.81
66505;SPS30;53332;51.082;5.832;2024-01-25T05:53:47;0.72;0.69;0.56;0.37;2.95;2.94;2.91;2.73;2.18;0.81
66505;SPS30;53332;51.082;5.832;2024-01-25T05:56:13;0.70;0.68;0.55;0.36;2.93;2.92;2.89;2.72;2.18;0.81
66505;SPS30;53332;51.082;5.832;2024-01-25T05:58:38;0.59;0.57;0.47;0.32;2.56;2.56;2.53;2.39;1.93;0.79
66505;SPS30;53332;51.082;5.832;2024-01-25T06:01:04;0.53;0.51;0.42;0.29;2.34;2.34;2.31;2.19;1.78;0.79
66505;SPS30;53332;51.082;5.832;2024-01-25T06:03:30;0.46;0.45;0.37;0.25;2.04;2.04;2.02;1.92;1.56;0.79
66505;SPS30;53332;51.082;5.832;2024-01-25T06:05:55;0.45;0.43;0.35;0.24;1.97;1.97;1.95;1.84;1.50;0.79
66505;SPS30;53332;51.082;5.832;2024-01-25T06:08:21;0.45;0.43;0.35;0.24;1.96;1.95;1.93;1.83;1.49;0.79
66505;SPS30;53332;51.082;5.832;2024-01-25T06:10:47;0.41;0.40;0.33;0.22;1.79;1.78;1.77;1.67;1.35;0.79
66505;SPS30;53332;51.082;5.832;2024-01-25T06:13:12;0.65;0.63;0.51;0.35;2.81;2.80;2.77;2.62;2.11;0.80
66505;SPS30;53332;51.082;5.832;2024-01-25T06:15:38;0.56;0.54;0.44;0.30;2.38;2.38;2.35;2.22;1.79;0.80
66505;SPS30;53332;51.082;5.832;2024-01-25T06:18:04;0.71;0.69;0.56;0.38;3.06;3.05;3.02;2.85;2.30;0.80
66505;SPS30;53332;51.082;5.832;2024-01-25T06:20:29;0.63;0.60;0.49;0.34;2.70;2.70;2.67;2.52;2.04;0.80
66505;SPS30;53332;51.082;5.832;2024-01-25T06:22:55;0.71;0.68;0.55;0.37;3.01;3.01;2.97;2.80;2.26;0.81
66505;SPS30;53332;51.082;5.832;2024-01-25T06:25:20;0.72;0.69;0.56;0.37;3.01;3.00;2.97;2.80;2.25;0.82
66505;SPS30;53332;51.082;5.832;2024-01-25T06:27:47;0.87;0.84;0.67;0.44;3.58;3.57;3.53;3.31;2.65;0.84
66505;SPS30;53332;51.082;5.832;2024-01-25T06:30:13;0.83;0.80;0.64;0.42;3.41;3.40;3.36;3.16;2.52;0.83
66505;SPS30;53332;51.082;5.832;2024-01-25T06:32:39;0.67;0.64;0.52;0.35;2.80;2.80;2.77;2.61;2.09;0.83
66505;SPS30;53332;51.082;5.832;2024-01-25T06:35:05;0.46;0.45;0.36;0.24;1.94;1.93;1.91;1.80;1.44;0.83
66505;SPS30;53332;51.082;5.832;2024-01-25T06:37:31;0.40;0.38;0.31;0.21;1.67;1.67;1.65;1.55;1.25;0.82
66505;SPS30;53332;51.082;5.832;2024-01-25T06:39:57;0.65;0.63;0.51;0.35;2.84;2.83;2.80;2.65;2.15;0.81
66505;SPS30;53332;51.082;5.832;2024-01-25T06:42:23;0.42;0.40;0.33;0.23;1.84;1.83;1.81;1.72;1.39;0.81
66505;SPS30;53332;51.082;5.832;2024-01-25T06:44:49;0.50;0.49;0.40;0.28;2.22;2.22;2.20;2.08;1.69;0.81
66505;SPS30;53332;51.082;5.832;2024-01-25T06:47:14;0.50;0.48;0.39;0.27;2.20;2.20;2.17;2.06;1.68;0.80
66505;SPS30;53332;51.082;5.832;2024-01-25T06:49:40;0.62;0.60;0.49;0.34;2.75;2.74;2.71;2.57;2.09;0.81
66505;SPS30;53332;51.082;5.832;2024-01-25T06:52:05;0.84;0.81;0.67;0.47;3.78;3.78;3.74;3.56;2.90;0.80
66505;SPS30;53332;51.082;5.832;2024-01-25T06:54:31;0.80;0.77;0.64;0.45;3.59;3.58;3.55;3.37;2.75;0.80
66505;SPS30;53332;51.082;5.832;2024-01-25T06:56:57;0.65;0.62;0.51;0.35;2.86;2.85;2.82;2.68;2.17;0.80
66505;SPS30;53332;51.082;5.832;2024-01-25T06:59:22;0.54;0.52;0.43;0.30;2.40;2.40;2.37;2.25;1.83;0.80
66505;SPS30;53332;51.082;5.832;2024-01-25T07:01:48;0.65;0.63;0.51;0.36;2.88;2.87;2.85;2.70;2.20;0.80
66505;SPS30;53332;51.082;5.832;2024-01-25T07:04:14;0.74;0.72;0.59;0.42;3.35;3.34;3.31;3.15;2.57;0.79
66505;SPS30;53332;51.082;5.832;2024-01-25T07:06:40;0.64;0.62;0.51;0.36;2.90;2.90;2.87;2.73;2.23;0.79
66505;SPS30;53332;51.082;5.832;2024-01-25T07:09:06;0.82;0.79;0.65;0.45;3.63;3.62;3.58;3.40;2.77;0.80
66505;SPS30;53332;51.082;5.832;2024-01-25T07:11:32;0.90;0.87;0.72;0.51;4.07;4.06;4.03;3.83;3.13;0.79
66505;SPS30;53332;51.082;5.832;2024-01-25T07:13:57;0.81;0.78;0.65;0.46;3.67;3.66;3.63;3.45;2.82;0.80
66505;SPS30;53332;51.082;5.832;2024-01-25T07:16:23;0.55;0.54;0.44;0.31;2.51;2.50;2.48;2.36;1.93;0.81
66505;SPS30;53332;51.082;5.832;2024-01-25T07:18:49;0.45;0.44;0.36;0.25;2.02;2.02;2.00;1.90;1.55;0.80
66505;SPS30;53332;51.082;5.832;2024-01-25T07:21:14;0.85;0.82;0.68;0.47;3.82;3.81;3.77;3.59;2.92;0.80
66505;SPS30;53332;51.082;5.832;2024-01-25T07:23:40;1.13;1.09;0.90;0.64;5.14;5.13;5.08;4.84;3.96;0.79
66505;SPS30;53332;51.082;5.832;2024-01-25T07:26:05;1.06;1.03;0.85;0.60;4.86;4.86;4.81;4.58;3.75;0.78
66505;SPS30;53332;51.082;5.832;2024-01-25T07:28:31;0.88;0.85;0.70;0.50;3.99;3.98;3.95;3.76;3.07;0.78
66505;SPS30;53332;51.082;5.832;2024-01-25T07:30:56;0.90;0.87;0.72;0.51;4.08;4.07;4.03;3.84;3.13;0.78
66505;SPS30;53332;51.082;5.832;2024-01-25T07:33:22;1.06;1.03;0.86;0.62;4.99;4.98;4.94;4.72;3.88;0.76
66505;SPS30;53332;51.082;5.832;2024-01-25T07:35:47;0.84;0.81;0.69;0.50;4.04;4.03;4.00;3.83;3.17;0.75
66505;SPS30;53332;51.082;5.832;2024-01-25T07:38:16;0.93;0.90;0.76;0.56;4.52;4.51;4.48;4.30;3.56;0.75
66505;SPS30;53332;51.082;5.832;2024-01-25T07:40:42;0.95;0.92;0.79;0.58;4.67;4.66;4.63;4.44;3.68;0.75
66505;SPS30;53332;51.082;5.832;2024-01-25T07:43:07;0.71;0.69;0.58;0.43;3.47;3.46;3.44;3.30;2.74;0.75
66505;SPS30;53332;51.082;5.832;2024-01-25T07:45:33;0.83;0.80;0.68;0.50;4.03;4.03;4.00;3.84;3.18;0.75
66505;SPS30;53332;51.082;5.832;2024-01-25T07:47:59;0.72;0.69;0.59;0.44;3.51;3.51;3.48;3.34;2.77;0.74
66505;SPS30;53332;51.082;5.832;2024-01-25T07:50:25;0.68;0.66;0.56;0.42;3.35;3.34;3.32;3.19;2.64;0.74
66505;SPS30;53332;51.082;5.832;2024-01-25T07:52:51;0.77;0.75;0.63;0.46;3.73;3.72;3.69;3.54;2.93;0.76
66505;SPS30;53332;51.082;5.832;2024-01-25T07:55:16;0.66;0.64;0.55;0.40;3.24;3.23;3.21;3.08;2.55;0.76
66505;SPS30;53332;51.082;5.832;2024-01-25T07:57:42;0.52;0.50;0.43;0.32;2.54;2.54;2.52;2.42;2.01;0.75
66505;SPS30;53332;51.082;5.832;2024-01-25T08:00:08;0.57;0.56;0.48;0.36;2.86;2.86;2.84;2.73;2.27;0.75
66505;SPS30;53332;51.082;5.832;2024-01-25T08:02:37;0.57;0.56;0.48;0.36;2.88;2.88;2.86;2.75;2.29;0.75
66505;SPS30;53332;51.082;5.832;2024-01-25T08:05:06;0.47;0.46;0.39;0.30;2.41;2.40;2.39;2.30;1.92;0.74
66505;SPS30;53332;51.082;5.832;2024-01-25T08:07:32;0.46;0.45;0.39;0.30;2.38;2.38;2.37;2.29;1.91;0.74
66505;SPS30;53332;51.082;5.832;2024-01-25T08:09:58;0.56;0.54;0.47;0.36;2.90;2.90;2.88;2.78;2.33;0.73
66505;SPS30;53332;51.082;5.832;2024-01-25T08:12:24;0.90;0.88;0.76;0.59;4.70;4.69;4.66;4.50;3.77;0.72
66505;SPS30;53332;51.082;5.832;2024-01-25T08:14:50;1.08;1.06;0.92;0.71;5.73;5.73;5.69;5.51;4.62;0.72
66505;SPS30;53332;51.082;5.832;2024-01-25T08:17:16;0.60;0.59;0.51;0.39;3.17;3.16;3.14;3.04;2.55;0.72
66505;SPS30;53332;51.082;5.832;2024-01-25T08:19:42;0.55;0.53;0.46;0.36;2.86;2.86;2.84;2.75;2.30;0.72
66505;SPS30;53332;51.082;5.832;2024-01-25T08:22:07;0.33;0.33;0.28;0.22;1.74;1.73;1.72;1.66;1.39;0.72
66505;SPS30;53332;51.082;5.832;2024-01-25T08:24:34;0.60;0.59;0.50;0.38;3.06;3.05;3.03;2.92;2.44;0.73
66505;SPS30;53332;51.082;5.832;2024-01-25T08:26:59;0.81;0.78;0.67;0.49;3.96;3.96;3.92;3.77;3.12;0.75
66505;SPS30;53332;51.082;5.832;2024-01-25T08:29:24;0.57;0.55;0.47;0.34;2.76;2.75;2.73;2.62;2.17;0.75
66505;SPS30;53332;51.082;5.832;2024-01-25T08:31:51;0.69;0.67;0.57;0.42;3.39;3.38;3.36;3.22;2.67;0.75
66505;SPS30;53332;51.082;5.832;2024-01-25T08:34:17;0.77;0.75;0.64;0.47;3.77;3.76;3.73;3.58;2.97;0.76
66505;SPS30;53332;51.082;5.832;2024-01-25T08:36:42;0.39;0.37;0.32;0.24;1.90;1.90;1.88;1.81;1.50;0.75
66505;SPS30;53332;51.082;5.832;2024-01-25T08:39:08;0.56;0.55;0.46;0.34;2.76;2.76;2.73;2.62;2.18;0.75
66505;SPS30;53332;51.082;5.832;2024-01-25T08:41:34;1.18;1.15;0.97;0.71;5.72;5.71;5.66;5.43;4.49;0.76
66505;SPS30;53332;51.082;5.832;2024-01-25T08:44:00;1.56;1.51;1.27;0.93;7.45;7.44;7.38;7.06;5.83;0.76
66505;SPS30;53332;51.082;5.832;2024-01-25T08:46:25;1.20;1.17;0.99;0.72;5.77;5.77;5.72;5.48;4.52;0.76
66505;SPS30;53332;51.082;5.832;2024-01-25T08:48:51;1.50;1.46;1.22;0.87;6.99;6.98;6.92;6.60;5.42;0.78
66505;SPS30;53332;51.082;5.832;2024-01-25T08:51:17;1.10;1.07;0.90;0.65;5.23;5.22;5.18;4.95;4.08;0.76
66505;SPS30;53332;51.082;5.832;2024-01-25T08:53:42;1.28;1.24;1.05;0.77;6.20;6.19;6.14;5.89;4.87;0.76
66505;SPS30;53332;51.082;5.832;2024-01-25T08:56:08;1.13;1.10;0.93;0.70;5.59;5.58;5.54;5.32;4.42;0.73
66505;SPS30;53332;51.082;5.832;2024-01-25T08:58:33;1.00;0.97;0.83;0.62;4.97;4.97;4.93;4.74;3.94;0.73
66505;SPS30;53332;51.082;5.832;2024-01-25T09:00:59;0.93;0.91;0.78;0.59;4.74;4.73;4.70;4.53;3.78;0.73
66505;SPS30;53332;51.082;5.832;2024-01-25T09:03:25;0.98;0.96;0.83;0.64;5.12;5.12;5.08;4.91;4.11;0.72
66505;SPS30;53332;51.082;5.832;2024-01-25T09:05:51;0.75;0.73;0.63;0.49;3.90;3.90;3.87;3.74;3.13;0.71
66505;SPS30;53332;51.082;5.832;2024-01-25T09:08:17;1.04;1.02;0.88;0.67;5.40;5.39;5.35;5.17;4.33;0.72
66505;SPS30;53332;51.082;5.832;2024-01-25T09:10:43;0.59;0.57;0.50;0.38;3.03;3.02;3.00;2.90;2.42;0.72
66505;SPS30;53332;51.082;5.832;2024-01-25T09:13:09;0.56;0.55;0.47;0.35;2.85;2.84;2.82;2.72;2.27;0.73
66505;SPS30;53332;51.082;5.832;2024-01-25T09:15:35;0.43;0.41;0.35;0.26;2.11;2.11;2.09;2.01;1.67;0.73
66505;SPS30;53332;51.082;5.832;2024-01-25T09:18:01;0.61;0.59;0.51;0.38;3.03;3.02;3.00;2.88;2.39;0.74
66505;SPS30;53332;51.082;5.832;2024-01-25T09:20:27;0.68;0.66;0.56;0.42;3.35;3.34;3.32;3.19;2.64;0.74
66505;SPS30;53332;51.082;5.832;2024-01-25T09:22:53;0.74;0.72;0.61;0.45;3.59;3.59;3.56;3.42;2.83;0.74
66505;SPS30;53332;51.082;5.832;2024-01-25T09:25:21;0.47;0.46;0.39;0.29;2.31;2.30;2.28;2.19;1.82;0.74
66505;SPS30;53332;51.082;5.832;2024-01-25T09:27:48;0.77;0.75;0.64;0.47;3.78;3.78;3.75;3.60;2.98;0.74
66505;SPS30;53332;51.082;5.832;2024-01-25T09:30:14;1.18;1.15;0.97;0.71;5.70;5.69;5.64;5.41;4.47;0.75
66505;SPS30;53332;51.082;5.832;2024-01-25T09:32:40;2.13;2.07;1.75;1.28;10.27;10.25;10.17;9.74;8.05;0.76